createdAt,value
2019-06-26T00:00:16.326Z,0
2019-06-26T00:01:16.033Z,0
2019-06-26T00:02:16.327Z,0
2019-06-26T00:03:16.090Z,0
2019-06-26T00:04:16.379Z,0
2019-06-26T00:05:16.714Z,0
2019-06-26T00:06:16.166Z,0
2019-06-26T00:07:15.959Z,0
2019-06-26T00:08:16.617Z,0
2019-06-26T00:09:16.529Z,0
2019-06-26T00:10:16.795Z,0
2019-06-26T00:11:16.844Z,0
2019-06-26T00:12:16.334Z,0
2019-06-26T00:13:32.182Z,0
2019-06-26T00:14:16.922Z,0
2019-06-26T00:15:16.966Z,0
2019-06-26T00:16:16.980Z,0
2019-06-26T00:17:16.503Z,0
2019-06-26T00:18:16.809Z,0
2019-06-26T00:19:16.954Z,0
2019-06-26T00:20:17.090Z,0
2019-06-26T00:21:16.334Z,0
2019-06-26T00:22:16.350Z,0
2019-06-26T00:23:16.659Z,0
2019-06-26T00:24:16.945Z,0
2019-06-26T00:25:16.439Z,0
2019-06-26T00:26:16.723Z,0
2019-06-26T00:27:17.326Z,0
2019-06-26T00:28:16.806Z,0
2019-06-26T00:29:16.819Z,0
2019-06-26T00:30:16.580Z,0
2019-06-26T00:31:17.438Z,0
2019-06-26T00:32:17.224Z,0
2019-06-26T00:33:17.435Z,0
2019-06-26T00:34:16.695Z,0
2019-06-26T00:35:16.970Z,0
2019-06-26T00:36:17.028Z,0
2019-06-26T00:37:17.305Z,0
2019-06-26T00:38:17.059Z,0
2019-06-26T00:39:17.364Z,0
2019-06-26T00:40:17.522Z,0
2019-06-26T00:41:17.231Z,0
2019-06-26T00:42:17.746Z,0
2019-06-26T00:43:17.263Z,0
2019-06-26T00:44:17.485Z,0
2019-06-26T00:45:17.527Z,0
2019-06-26T00:46:17.274Z,0
2019-06-26T00:47:16.787Z,0
2019-06-26T00:48:17.612Z,0
2019-06-26T00:49:17.107Z,0
2019-06-26T00:50:17.666Z,0
2019-06-26T00:51:17.432Z,0
2019-06-26T00:52:17.703Z,0
2019-06-26T00:53:17.465Z,0
2019-06-26T00:54:17.669Z,0
2019-06-26T00:55:17.591Z,0
2019-06-26T00:56:18.123Z,0
2019-06-26T00:57:17.955Z,0
2019-06-26T00:58:17.366Z,0
2019-06-26T00:59:17.914Z,0
2019-06-26T01:00:17.968Z,0
2019-06-26T01:01:17.748Z,0
2019-06-26T01:02:18.302Z,0
2019-06-26T01:03:18.011Z,0
2019-06-26T01:04:17.845Z,0
2019-06-26T01:05:18.372Z,0
2019-06-26T01:06:17.583Z,0
2019-06-26T01:07:17.885Z,0
2019-06-26T01:08:18.181Z,0
2019-06-26T01:09:17.923Z,0
2019-06-26T01:10:18.244Z,0
2019-06-26T01:11:21.400Z,0
2019-06-26T01:12:18.417Z,0
2019-06-26T01:13:17.765Z,0
2019-06-26T01:14:18.105Z,0
2019-06-26T01:15:18.659Z,0
2019-06-26T01:16:18.691Z,0
2019-06-26T01:17:18.145Z,0
2019-06-26T01:18:18.164Z,0
2019-06-26T01:19:18.219Z,0
2019-06-26T01:20:18.772Z,0
2019-06-26T01:21:18.254Z,0
2019-06-26T01:22:18.863Z,0
2019-06-26T01:23:18.310Z,0
2019-06-26T01:24:18.852Z,0
2019-06-26T01:25:18.381Z,0
2019-06-26T01:26:18.911Z,0
2019-06-26T01:27:18.438Z,0
2019-06-26T01:28:18.447Z,0
2019-06-26T01:29:18.467Z,0
2019-06-26T01:30:19.030Z,0
2019-06-26T01:31:18.800Z,0
2019-06-26T01:32:18.814Z,0
2019-06-26T01:33:19.166Z,0
2019-06-26T01:34:18.086Z,0
2019-06-26T01:35:18.365Z,0
2019-06-26T01:36:18.664Z,0
2019-06-26T01:37:18.956Z,0
2019-06-26T01:38:18.716Z,0
2019-06-26T01:39:19.007Z,0
2019-06-26T01:40:19.075Z,0
2019-06-26T01:41:19.143Z,0
2019-06-26T01:42:18.840Z,0
2019-06-26T01:43:19.154Z,0
2019-06-26T01:44:24.306Z,0
2019-06-26T01:45:19.464Z,0
2019-06-26T01:46:19.203Z,0
2019-06-26T01:47:19.002Z,0
2019-06-26T01:48:19.280Z,0
2019-06-26T01:49:19.027Z,0
2019-06-26T01:50:19.322Z,0
2019-06-26T01:51:18.836Z,0
2019-06-26T01:52:19.125Z,0
2019-06-26T01:53:19.662Z,0
2019-06-26T01:54:19.165Z,0
2019-06-26T01:55:19.442Z,0
2019-06-26T01:56:18.954Z,0
2019-06-26T01:57:19.252Z,0
2019-06-26T01:58:19.526Z,0
2019-06-26T01:59:19.052Z,0
2019-06-26T02:00:19.335Z,0
2019-06-26T02:01:19.631Z,0
2019-06-26T02:02:19.902Z,0
2019-06-26T02:03:19.149Z,0
2019-06-26T02:04:22.675Z,0
2019-06-26T02:05:19.572Z,0
2019-06-26T02:06:20.018Z,0
2019-06-26T02:07:19.543Z,0
2019-06-26T02:08:19.843Z,0
2019-06-26T02:09:20.125Z,0
2019-06-26T02:10:19.357Z,0
2019-06-26T02:11:19.631Z,0
2019-06-26T02:12:20.238Z,0
2019-06-26T02:13:20.266Z,0
2019-06-26T02:14:35.417Z,0
2019-06-26T02:15:20.063Z,0
2019-06-26T02:16:19.503Z,0
2019-06-26T02:17:19.810Z,0
2019-06-26T02:18:20.107Z,0
2019-06-26T02:19:19.585Z,0
2019-06-26T02:20:20.136Z,0
2019-06-26T02:21:20.224Z,0
2019-06-26T02:22:20.192Z,0
2019-06-26T02:23:20.227Z,0
2019-06-26T02:24:20.507Z,0
2019-06-26T02:25:20.043Z,0
2019-06-26T02:26:20.602Z,0
2019-06-26T02:27:20.069Z,0
2019-06-26T02:28:20.100Z,0
2019-06-26T02:29:20.171Z,0
2019-06-26T02:30:20.698Z,0
2019-06-26T02:31:19.927Z,0
2019-06-26T02:32:20.256Z,0
2019-06-26T02:33:20.763Z,0
2019-06-26T02:34:20.848Z,0
2019-06-26T02:35:20.301Z,0
2019-06-26T02:36:20.318Z,0
2019-06-26T02:37:20.621Z,0
2019-06-26T02:38:20.983Z,0
2019-06-26T02:39:20.441Z,0
2019-06-26T02:40:20.965Z,0
2019-06-26T02:41:20.999Z,0
2019-06-26T02:42:21.184Z,0
2019-06-26T02:43:20.538Z,0
2019-06-26T02:44:20.807Z,0
2019-06-26T02:45:21.187Z,0
2019-06-26T02:46:20.599Z,0
2019-06-26T02:47:29.786Z,0
2019-06-26T02:48:21.009Z,0
2019-06-26T02:49:20.962Z,0
2019-06-26T02:50:21.418Z,0
2019-06-26T02:51:20.755Z,0
2019-06-26T02:52:21.034Z,0
2019-06-26T02:53:21.095Z,0
2019-06-26T02:54:21.355Z,0
2019-06-26T02:55:21.197Z,0
2019-06-26T02:56:21.119Z,0
2019-06-26T02:57:21.427Z,0
2019-06-26T02:58:20.925Z,0
2019-06-26T02:59:21.217Z,0
2019-06-26T03:00:21.261Z,0
2019-06-26T03:01:20.758Z,0
2019-06-26T03:02:21.319Z,0
2019-06-26T03:03:21.616Z,0
2019-06-26T03:04:21.438Z,0
2019-06-26T03:05:21.377Z,0
2019-06-26T03:06:21.404Z,0
2019-06-26T03:07:21.439Z,0
2019-06-26T03:08:21.722Z,0
2019-06-26T03:09:21.471Z,0
2019-06-26T03:10:21.883Z,0
2019-06-26T03:11:21.372Z,0
2019-06-26T03:12:21.325Z,0
2019-06-26T03:13:21.627Z,0
2019-06-26T03:14:21.617Z,0
2019-06-26T03:15:21.902Z,0
2019-06-26T03:16:21.744Z,0
2019-06-26T03:17:21.173Z,0
2019-06-26T03:18:21.207Z,0
2019-06-26T03:19:21.511Z,0
2019-06-26T03:20:21.523Z,0
2019-06-26T03:21:21.801Z,0
2019-06-26T03:22:21.593Z,0
2019-06-26T03:23:21.598Z,0
2019-06-26T03:24:21.891Z,0
2019-06-26T03:25:21.923Z,0
2019-06-26T03:26:22.200Z,5
2019-06-26T03:27:21.737Z,5
2019-06-26T03:28:22.003Z,5
2019-06-26T03:29:22.027Z,5
2019-06-26T03:30:22.356Z,5
2019-06-26T03:31:22.369Z,5
2019-06-26T03:32:22.387Z,5
2019-06-26T03:33:21.664Z,5
2019-06-26T03:34:22.418Z,5
2019-06-26T03:35:22.467Z,5
2019-06-26T03:36:22.216Z,5
2019-06-26T03:37:21.725Z,5
2019-06-26T03:38:22.004Z,5
2019-06-26T03:39:21.512Z,5
2019-06-26T03:40:22.074Z,5
2019-06-26T03:41:22.132Z,5
2019-06-26T03:42:22.402Z,5
2019-06-26T03:43:22.429Z,5
2019-06-26T03:44:22.609Z,10
2019-06-26T03:45:34.992Z,10
2019-06-26T03:46:22.235Z,10
2019-06-26T03:47:22.262Z,10
2019-06-26T03:48:22.823Z,10
2019-06-26T03:49:22.371Z,10
2019-06-26T03:50:22.600Z,10
2019-06-26T03:51:23.417Z,10
2019-06-26T03:52:22.660Z,10
2019-06-26T03:53:22.470Z,10
2019-06-26T03:54:22.757Z,10
2019-06-26T03:55:22.730Z,10
2019-06-26T03:56:22.806Z,10
2019-06-26T03:57:22.561Z,10
2019-06-26T03:58:22.839Z,15
2019-06-26T03:59:22.576Z,15
2019-06-26T04:00:22.872Z,15
2019-06-26T04:01:22.914Z,15
2019-06-26T04:02:22.996Z,15
2019-06-26T04:03:23.021Z,15
2019-06-26T04:04:23.262Z,15
2019-06-26T04:05:23.073Z,15
2019-06-26T04:06:23.047Z,15
2019-06-26T04:07:23.057Z,15
2019-06-26T04:08:23.341Z,15
2019-06-26T04:09:22.848Z,15
2019-06-26T04:10:23.127Z,20
2019-06-26T04:11:23.434Z,20
2019-06-26T04:12:23.218Z,15
2019-06-26T04:13:22.844Z,20
2019-06-26T04:14:23.260Z,20
2019-06-26T04:15:23.540Z,20
2019-06-26T04:16:23.053Z,20
2019-06-26T04:17:23.319Z,25
2019-06-26T04:18:23.449Z,25
2019-06-26T04:19:23.650Z,25
2019-06-26T04:20:23.442Z,25
2019-06-26T04:21:23.695Z,25
2019-06-26T04:22:23.770Z,25
2019-06-26T04:23:23.527Z,25
2019-06-26T04:24:23.784Z,25
2019-06-26T04:25:23.823Z,25
2019-06-26T04:26:23.766Z,25
2019-06-26T04:27:23.347Z,25
2019-06-26T04:28:23.370Z,25
2019-06-26T04:29:23.653Z,25
2019-06-26T04:30:23.764Z,30
2019-06-26T04:31:23.455Z,30
2019-06-26T04:32:23.470Z,30
2019-06-26T04:33:23.764Z,30
2019-06-26T04:34:24.099Z,30
2019-06-26T04:35:23.553Z,30
2019-06-26T04:36:23.583Z,30
2019-06-26T04:37:23.634Z,30
2019-06-26T04:38:24.149Z,30
2019-06-26T04:39:23.711Z,35
2019-06-26T04:40:27.104Z,35
2019-06-26T04:41:24.250Z,35
2019-06-26T04:42:23.748Z,35
2019-06-26T04:43:24.031Z,30
2019-06-26T04:44:23.816Z,30
2019-06-26T04:45:23.571Z,30
2019-06-26T04:46:23.866Z,30
2019-06-26T04:47:23.877Z,30
2019-06-26T04:48:23.384Z,30
2019-06-26T04:49:23.953Z,30
2019-06-26T04:50:23.448Z,30
2019-06-26T04:51:24.036Z,30
2019-06-26T04:52:24.022Z,30
2019-06-26T04:53:24.585Z,30
2019-06-26T04:54:24.330Z,30
2019-06-26T04:55:24.357Z,30
2019-06-26T04:56:24.448Z,30
2019-06-26T04:57:24.418Z,30
2019-06-26T04:58:24.199Z,35
2019-06-26T04:59:24.207Z,35
2019-06-26T05:00:26.254Z,35
2019-06-26T05:01:24.286Z,35
2019-06-26T05:02:24.055Z,35
2019-06-26T05:03:24.589Z,35
2019-06-26T05:04:24.887Z,35
2019-06-26T05:05:43.594Z,35
2019-06-26T05:06:24.906Z,35
2019-06-26T05:07:24.712Z,35
2019-06-26T05:08:24.456Z,35
2019-06-26T05:09:24.998Z,35
2019-06-26T05:10:24.521Z,35
2019-06-26T05:11:24.816Z,40
2019-06-26T05:12:24.335Z,40
2019-06-26T05:13:24.880Z,40
2019-06-26T05:14:25.178Z,40
2019-06-26T05:15:24.676Z,40
2019-06-26T05:16:29.764Z,40
2019-06-26T05:17:25.280Z,40
2019-06-26T05:18:25.452Z,40
2019-06-26T05:19:25.016Z,40
2019-06-26T05:20:25.122Z,40
2019-06-26T05:21:25.193Z,40
2019-06-26T05:22:24.580Z,40
2019-06-26T05:23:24.922Z,40
2019-06-26T05:24:25.471Z,40
2019-06-26T05:25:24.918Z,40
2019-06-26T05:26:25.481Z,40
2019-06-26T05:27:24.990Z,45
2019-06-26T05:28:25.055Z,45
2019-06-26T05:29:25.291Z,45
2019-06-26T05:30:25.346Z,45
2019-06-26T05:31:25.619Z,45
2019-06-26T05:32:24.874Z,45
2019-06-26T05:33:25.418Z,45
2019-06-26T05:34:25.187Z,45
2019-06-26T05:35:24.932Z,45
2019-06-26T05:36:24.980Z,45
2019-06-26T05:37:25.008Z,45
2019-06-26T05:38:25.584Z,45
2019-06-26T05:39:25.618Z,45
2019-06-26T05:40:25.921Z,45
2019-06-26T05:41:25.363Z,45
2019-06-26T05:42:25.121Z,50
2019-06-26T05:43:25.950Z,50
2019-06-26T05:44:25.436Z,50
2019-06-26T05:45:25.732Z,50
2019-06-26T05:46:40.327Z,50
2019-06-26T05:47:29.270Z,50
2019-06-26T05:48:25.814Z,55
2019-06-26T05:49:25.314Z,70
2019-06-26T05:50:25.601Z,80
2019-06-26T05:51:25.911Z,90
2019-06-26T05:52:26.257Z,95
2019-06-26T05:53:26.247Z,105
2019-06-26T05:54:25.972Z,110
2019-06-26T05:55:25.740Z,110
2019-06-26T05:56:25.771Z,110
2019-06-26T05:57:25.800Z,115
2019-06-26T05:58:25.826Z,110
2019-06-26T05:59:26.416Z,110
2019-06-26T06:00:26.310Z,110
2019-06-26T06:01:26.233Z,85
2019-06-26T06:02:26.097Z,55
2019-06-26T06:03:26.233Z,50
2019-06-26T06:04:26.293Z,50
2019-06-26T06:05:26.531Z,50
2019-06-26T06:06:40.556Z,50
2019-06-26T06:07:26.327Z,50
2019-06-26T06:08:26.375Z,50
2019-06-26T06:09:26.468Z,55
2019-06-26T06:10:26.511Z,55
2019-06-26T06:11:26.491Z,55
2019-06-26T06:12:26.468Z,55
2019-06-26T06:13:26.799Z,55
2019-06-26T06:14:26.787Z,55
2019-06-26T06:15:26.563Z,55
2019-06-26T06:16:26.425Z,55
2019-06-26T06:17:26.788Z,55
2019-06-26T06:18:26.900Z,55
2019-06-26T06:19:26.783Z,55
2019-06-26T06:20:26.171Z,55
2019-06-26T06:21:26.983Z,55
2019-06-26T06:22:29.869Z,55
2019-06-26T06:23:26.794Z,55
2019-06-26T06:24:27.077Z,55
2019-06-26T06:25:27.159Z,55
2019-06-26T06:26:26.117Z,15
2019-06-26T06:27:26.362Z,55
2019-06-26T06:28:26.144Z,55
2019-06-26T06:29:29.929Z,55
2019-06-26T06:30:27.005Z,55
2019-06-26T06:31:26.753Z,55
2019-06-26T06:32:26.761Z,55
2019-06-26T06:33:27.044Z,55
2019-06-26T06:34:26.815Z,55
2019-06-26T06:35:26.595Z,55
2019-06-26T06:36:27.143Z,55
2019-06-26T06:37:27.166Z,55
2019-06-26T06:38:26.974Z,55
2019-06-26T06:39:26.948Z,55
2019-06-26T06:40:26.468Z,55
2019-06-26T06:41:27.004Z,55
2019-06-26T06:42:27.298Z,55
2019-06-26T06:43:27.344Z,55
2019-06-26T06:44:27.087Z,55
2019-06-26T06:45:27.457Z,55
2019-06-26T06:46:27.156Z,55
2019-06-26T06:47:27.493Z,55
2019-06-26T06:48:27.287Z,55
2019-06-26T06:49:27.254Z,55
2019-06-26T06:50:27.515Z,55
2019-06-26T06:51:27.546Z,55
2019-06-26T06:52:27.832Z,55
2019-06-26T06:53:27.599Z,55
2019-06-26T06:54:27.934Z,55
2019-06-26T06:55:27.993Z,55
2019-06-26T06:56:27.695Z,60
2019-06-26T06:57:26.930Z,60
2019-06-26T06:58:30.128Z,60
2019-06-26T06:59:28.028Z,60
2019-06-26T07:00:27.858Z,60
2019-06-26T07:01:28.132Z,60
2019-06-26T07:02:27.584Z,60
2019-06-26T07:03:27.617Z,60
2019-06-26T07:04:27.379Z,60
2019-06-26T07:05:27.667Z,60
2019-06-26T07:06:28.040Z,60
2019-06-26T07:07:27.729Z,60
2019-06-26T07:08:28.059Z,60
2019-06-26T07:09:28.093Z,60
2019-06-26T07:10:28.068Z,60
2019-06-26T07:11:28.096Z,60
2019-06-26T07:12:30.672Z,60
2019-06-26T07:13:28.165Z,60
2019-06-26T07:14:27.659Z,60
2019-06-26T07:15:27.431Z,60
2019-06-26T07:16:28.021Z,60
2019-06-26T07:17:30.943Z,60
2019-06-26T07:18:28.034Z,60
2019-06-26T07:19:28.352Z,60
2019-06-26T07:20:28.616Z,60
2019-06-26T07:21:28.112Z,60
2019-06-26T07:22:28.454Z,60
2019-06-26T07:23:28.176Z,60
2019-06-26T07:24:28.201Z,60
2019-06-26T07:25:28.543Z,60
2019-06-26T07:26:28.517Z,60
2019-06-26T07:27:28.808Z,60
2019-06-26T07:28:28.962Z,60
2019-06-26T07:29:28.339Z,60
2019-06-26T07:30:28.921Z,60
2019-06-26T07:31:28.678Z,60
2019-06-26T07:32:28.718Z,60
2019-06-26T07:33:28.962Z,60
2019-06-26T07:34:28.551Z,60
2019-06-26T07:35:28.276Z,60
2019-06-26T07:36:28.927Z,60
2019-06-26T07:37:28.292Z,60
2019-06-26T07:38:28.625Z,60
2019-06-26T07:39:28.876Z,60
2019-06-26T07:40:29.000Z,60
2019-06-26T07:41:29.217Z,60
2019-06-26T07:42:29.219Z,60
2019-06-26T07:43:28.718Z,60
2019-06-26T07:44:29.325Z,60
2019-06-26T07:45:33.618Z,60
2019-06-26T07:46:29.320Z,60
2019-06-26T07:47:49.518Z,60
2019-06-26T07:48:29.241Z,60
2019-06-26T07:49:29.142Z,60
2019-06-26T07:50:32.309Z,60
2019-06-26T07:51:29.206Z,60
2019-06-26T07:52:29.223Z,60
2019-06-26T07:53:29.368Z,60
2019-06-26T07:54:29.348Z,60
2019-06-26T07:55:29.082Z,60
2019-06-26T07:56:29.715Z,60
2019-06-26T07:57:28.852Z,60
2019-06-26T07:58:28.624Z,60
2019-06-26T07:59:29.178Z,60
2019-06-26T08:00:34.115Z,60
2019-06-26T08:01:29.242Z,60
2019-06-26T08:02:29.772Z,60
2019-06-26T08:03:29.840Z,60
2019-06-26T08:04:30.017Z,60
2019-06-26T08:05:29.867Z,60
2019-06-26T08:06:29.358Z,60
2019-06-26T08:07:29.138Z,60
2019-06-26T08:08:29.690Z,60
2019-06-26T08:09:29.998Z,60
2019-06-26T08:10:30.070Z,60
2019-06-26T08:11:29.245Z,60
2019-06-26T08:12:29.837Z,60
2019-06-26T08:13:29.555Z,60
2019-06-26T08:14:29.928Z,60
2019-06-26T08:15:30.138Z,60
2019-06-26T08:16:29.673Z,60
2019-06-26T08:17:29.669Z,60
2019-06-26T08:18:29.961Z,60
2019-06-26T08:19:30.087Z,60
2019-06-26T08:20:30.037Z,60
2019-06-26T08:21:29.769Z,60
2019-06-26T08:22:30.080Z,60
2019-06-26T08:23:30.488Z,60
2019-06-26T08:24:30.145Z,60
2019-06-26T08:25:30.412Z,60
2019-06-26T08:26:29.947Z,60
2019-06-26T08:27:30.199Z,60
2019-06-26T08:28:30.532Z,60
2019-06-26T08:29:30.582Z,60
2019-06-26T08:30:30.544Z,60
2019-06-26T08:31:30.568Z,60
2019-06-26T08:32:32.836Z,60
2019-06-26T08:33:30.655Z,60
2019-06-26T08:34:30.480Z,60
2019-06-26T08:35:30.312Z,65
2019-06-26T08:36:30.195Z,65
2019-06-26T08:37:30.732Z,65
2019-06-26T08:38:30.503Z,65
2019-06-26T08:39:30.407Z,65
2019-06-26T08:40:30.864Z,65
2019-06-26T08:41:30.941Z,65
2019-06-26T08:42:30.607Z,65
2019-06-26T08:43:33.854Z,65
2019-06-26T08:44:30.935Z,65
2019-06-26T08:45:31.027Z,65
2019-06-26T08:46:30.479Z,65
2019-06-26T08:47:30.646Z,65
2019-06-26T08:48:50.811Z,65
2019-06-26T08:49:35.481Z,65
2019-06-26T08:50:30.308Z,65
2019-06-26T08:51:30.631Z,65
2019-06-26T08:52:30.678Z,65
2019-06-26T08:53:31.178Z,65
2019-06-26T08:54:31.294Z,65
2019-06-26T08:55:31.256Z,65
2019-06-26T08:56:30.780Z,65
2019-06-26T08:57:31.027Z,70
2019-06-26T08:58:31.050Z,70
2019-06-26T08:59:31.087Z,65
2019-06-26T09:00:30.863Z,65
2019-06-26T09:01:30.613Z,65
2019-06-26T09:02:31.192Z,65
2019-06-26T09:03:31.194Z,65
2019-06-26T09:04:32.132Z,65
2019-06-26T09:05:46.751Z,65
2019-06-26T09:06:31.302Z,70
2019-06-26T09:07:31.306Z,70
2019-06-26T09:08:32.430Z,70
2019-06-26T09:09:31.435Z,65
2019-06-26T09:10:31.126Z,65
2019-06-26T09:11:31.681Z,65
2019-06-26T09:12:31.505Z,65
2019-06-26T09:13:31.489Z,65
2019-06-26T09:14:31.551Z,70
2019-06-26T09:15:31.536Z,70
2019-06-26T09:16:31.918Z,70
2019-06-26T09:17:31.843Z,70
2019-06-26T09:18:44.671Z,70
2019-06-26T09:19:31.957Z,70
2019-06-26T09:20:31.931Z,70
2019-06-26T09:21:33.702Z,70
2019-06-26T09:22:31.730Z,70
2019-06-26T09:23:35.943Z,65
2019-06-26T09:24:31.253Z,75
2019-06-26T09:25:32.001Z,75
2019-06-26T09:26:31.867Z,70
2019-06-26T09:27:31.350Z,75
2019-06-26T09:28:32.157Z,70
2019-06-26T09:29:33.746Z,75
2019-06-26T09:30:31.442Z,80
2019-06-26T09:31:32.064Z,85
2019-06-26T09:32:31.885Z,95
2019-06-26T09:33:34.911Z,80
2019-06-26T09:34:32.408Z,80
2019-06-26T09:35:32.137Z,80
2019-06-26T09:36:31.860Z,85
2019-06-26T09:37:31.654Z,85
2019-06-26T09:38:32.501Z,80
2019-06-26T09:39:31.693Z,90
2019-06-26T09:40:36.415Z,85
2019-06-26T09:41:32.263Z,75
2019-06-26T09:42:32.299Z,65
2019-06-26T09:43:32.101Z,65
2019-06-26T09:44:32.085Z,85
2019-06-26T09:45:32.111Z,70
2019-06-26T09:46:32.458Z,70
2019-06-26T09:47:35.661Z,70
2019-06-26T09:48:32.452Z,55
2019-06-26T09:49:32.767Z,55
2019-06-26T09:50:32.250Z,65
2019-06-26T09:51:32.390Z,65
2019-06-26T09:52:32.598Z,65
2019-06-26T09:53:48.772Z,65
2019-06-26T09:54:32.652Z,65
2019-06-26T09:55:32.391Z,65
2019-06-26T09:56:32.166Z,65
2019-06-26T09:57:32.472Z,70
2019-06-26T09:58:33.015Z,70
2019-06-26T09:59:32.803Z,65
2019-06-26T10:00:32.952Z,65
2019-06-26T10:01:33.519Z,65
2019-06-26T10:02:32.840Z,65
2019-06-26T10:03:32.346Z,70
2019-06-26T10:04:32.951Z,65
2019-06-26T10:05:32.934Z,70
2019-06-26T10:06:32.959Z,70
2019-06-26T10:07:33.269Z,70
2019-06-26T10:08:32.756Z,70
2019-06-26T10:09:32.826Z,65
2019-06-26T10:10:32.855Z,65
2019-06-26T10:11:33.380Z,70
2019-06-26T10:12:33.133Z,70
2019-06-26T10:13:32.373Z,70
2019-06-26T10:14:53.364Z,70
2019-06-26T10:15:32.982Z,70
2019-06-26T10:16:33.082Z,70
2019-06-26T10:17:33.702Z,70
2019-06-26T10:18:33.068Z,65
2019-06-26T10:19:33.347Z,65
2019-06-26T10:20:33.127Z,65
2019-06-26T10:21:33.425Z,65
2019-06-26T10:22:33.415Z,70
2019-06-26T10:23:33.804Z,70
2019-06-26T10:24:33.770Z,75
2019-06-26T10:25:33.606Z,70
2019-06-26T10:26:37.405Z,70
2019-06-26T10:27:33.495Z,70
2019-06-26T10:28:33.995Z,70
2019-06-26T10:29:32.903Z,70
2019-06-26T10:30:33.796Z,65
2019-06-26T10:31:33.466Z,70
2019-06-26T10:32:33.948Z,65
2019-06-26T10:33:33.499Z,65
2019-06-26T10:34:33.778Z,65
2019-06-26T10:35:33.542Z,65
2019-06-26T10:36:34.325Z,65
2019-06-26T10:37:34.182Z,65
2019-06-26T10:38:33.862Z,65
2019-06-26T10:39:34.172Z,65
2019-06-26T10:40:33.397Z,65
2019-06-26T10:41:33.764Z,70
2019-06-26T10:42:33.977Z,70
2019-06-26T10:43:33.769Z,70
2019-06-26T10:44:34.128Z,70
2019-06-26T10:45:38.495Z,70
2019-06-26T10:46:34.121Z,70
2019-06-26T10:47:34.151Z,70
2019-06-26T10:48:34.161Z,70
2019-06-26T10:49:37.123Z,70
2019-06-26T10:50:47.400Z,70
2019-06-26T10:51:33.713Z,70
2019-06-26T10:52:34.007Z,70
2019-06-26T10:53:34.559Z,70
2019-06-26T10:54:34.573Z,70
2019-06-26T10:55:34.632Z,70
2019-06-26T10:56:38.184Z,70
2019-06-26T10:57:34.717Z,70
2019-06-26T10:58:34.435Z,70
2019-06-26T10:59:34.729Z,70
2019-06-26T11:00:34.753Z,70
2019-06-26T11:01:34.525Z,70
2019-06-26T11:02:34.561Z,70
2019-06-26T11:03:34.322Z,70
2019-06-26T11:04:34.637Z,75
2019-06-26T11:05:34.374Z,75
2019-06-26T11:06:36.990Z,75
2019-06-26T11:07:38.854Z,75
2019-06-26T11:08:34.746Z,75
2019-06-26T11:09:34.747Z,75
2019-06-26T11:10:34.826Z,75
2019-06-26T11:11:34.818Z,80
2019-06-26T11:12:34.904Z,80
2019-06-26T11:13:34.358Z,75
2019-06-26T11:14:34.643Z,75
2019-06-26T11:15:34.675Z,75
2019-06-26T11:16:35.357Z,75
2019-06-26T11:17:35.272Z,75
2019-06-26T11:18:35.567Z,75
2019-06-26T11:19:55.045Z,70
2019-06-26T11:20:35.448Z,70
2019-06-26T11:21:35.095Z,70
2019-06-26T11:22:35.169Z,70
2019-06-26T11:23:35.399Z,70
2019-06-26T11:24:34.928Z,70
2019-06-26T11:25:34.944Z,70
2019-06-26T11:26:34.983Z,70
2019-06-26T11:27:35.356Z,70
2019-06-26T11:28:35.580Z,70
2019-06-26T11:29:35.328Z,70
2019-06-26T11:30:35.634Z,75
2019-06-26T11:31:35.630Z,75
2019-06-26T11:32:35.217Z,75
2019-06-26T11:33:35.506Z,75
2019-06-26T11:34:35.804Z,75
2019-06-26T11:35:35.829Z,75
2019-06-26T11:36:35.518Z,75
2019-06-26T11:37:35.026Z,75
2019-06-26T11:38:35.346Z,75
2019-06-26T11:39:34.844Z,75
2019-06-26T11:40:36.208Z,75
2019-06-26T11:41:35.663Z,75
2019-06-26T11:42:40.020Z,75
2019-06-26T11:43:36.088Z,75
2019-06-26T11:44:35.726Z,75
2019-06-26T11:45:35.947Z,75
2019-06-26T11:46:37.079Z,75
2019-06-26T11:47:35.303Z,75
2019-06-26T11:48:36.150Z,75
2019-06-26T11:49:36.128Z,75
2019-06-26T11:50:36.196Z,75
2019-06-26T11:51:36.198Z,75
2019-06-26T11:52:35.963Z,75
2019-06-26T11:53:35.861Z,75
2019-06-26T11:54:35.761Z,75
2019-06-26T11:55:35.815Z,75
2019-06-26T11:56:35.561Z,75
2019-06-26T11:57:36.389Z,75
2019-06-26T11:58:36.403Z,75
2019-06-26T11:59:35.679Z,75
2019-06-26T12:00:36.192Z,75
2019-06-26T12:01:35.979Z,75
2019-06-26T12:02:36.708Z,75
2019-06-26T12:03:36.334Z,80
2019-06-26T12:04:36.573Z,75
2019-06-26T12:05:36.636Z,75
2019-06-26T12:06:36.385Z,75
2019-06-26T12:07:36.133Z,75
2019-06-26T12:08:36.737Z,75
2019-06-26T12:09:36.596Z,75
2019-06-26T12:10:36.483Z,75
2019-06-26T12:11:36.296Z,80
2019-06-26T12:12:36.786Z,80
2019-06-26T12:13:40.345Z,80
2019-06-26T12:14:36.857Z,80
2019-06-26T12:15:36.638Z,80
2019-06-26T12:16:36.487Z,80
2019-06-26T12:17:36.534Z,80
2019-06-26T12:18:36.460Z,80
2019-06-26T12:19:37.124Z,80
2019-06-26T12:20:36.517Z,80
2019-06-26T12:21:36.545Z,80
2019-06-26T12:22:37.116Z,80
2019-06-26T12:23:37.141Z,85
2019-06-26T12:24:36.621Z,85
2019-06-26T12:25:37.172Z,85
2019-06-26T12:26:36.950Z,85
2019-06-26T12:27:36.781Z,85
2019-06-26T12:28:36.835Z,85
2019-06-26T12:29:39.977Z,90
2019-06-26T12:30:37.109Z,90
2019-06-26T12:31:37.111Z,90
2019-06-26T12:33:04.663Z,90
2019-06-26T12:33:37.226Z,90
2019-06-26T12:34:37.930Z,90
2019-06-26T12:35:37.028Z,90
2019-06-26T12:36:37.298Z,90
2019-06-26T12:37:47.098Z,95
2019-06-26T12:38:37.054Z,95
2019-06-26T12:39:36.837Z,95
2019-06-26T12:40:40.638Z,100
2019-06-26T12:41:37.130Z,100
2019-06-26T12:42:37.676Z,100
2019-06-26T12:43:37.698Z,100
2019-06-26T12:44:36.687Z,95
2019-06-26T12:45:37.742Z,95
2019-06-26T12:46:37.700Z,95
2019-06-26T12:47:37.803Z,95
2019-06-26T12:48:37.330Z,95
2019-06-26T12:49:37.887Z,95
2019-06-26T12:50:45.344Z,95
2019-06-26T12:51:37.439Z,95
2019-06-26T12:52:37.692Z,95
2019-06-26T12:53:37.534Z,95
2019-06-26T12:54:37.759Z,95
2019-06-26T12:55:42.112Z,95
2019-06-26T12:56:37.668Z,95
2019-06-26T12:57:37.880Z,95
2019-06-26T12:58:38.113Z,95
2019-06-26T12:59:37.922Z,95
2019-06-26T13:00:37.967Z,100
2019-06-26T13:01:37.943Z,100
2019-06-26T13:02:37.975Z,100
2019-06-26T13:03:37.946Z,105
2019-06-26T13:04:37.942Z,105
2019-06-26T13:05:38.357Z,105
2019-06-26T13:06:38.247Z,110
2019-06-26T13:07:37.599Z,110
2019-06-26T13:08:38.161Z,110
2019-06-26T13:09:38.146Z,110
2019-06-26T13:10:55.266Z,115
2019-06-26T13:11:37.715Z,115
2019-06-26T13:12:38.037Z,115
2019-06-26T13:13:38.084Z,115
2019-06-26T13:14:38.423Z,115
2019-06-26T13:15:38.159Z,115
2019-06-26T13:16:38.123Z,120
2019-06-26T13:17:38.198Z,120
2019-06-26T13:18:38.270Z,120
2019-06-26T13:19:38.035Z,125
2019-06-26T13:20:54.552Z,125
2019-06-26T13:21:37.809Z,120
2019-06-26T13:22:38.878Z,120
2019-06-26T13:23:38.656Z,120
2019-06-26T13:24:38.758Z,125
2019-06-26T13:25:38.738Z,125
2019-06-26T13:26:38.711Z,125
2019-06-26T13:27:38.229Z,130
2019-06-26T13:28:38.743Z,130
2019-06-26T13:29:38.997Z,135
2019-06-26T13:30:38.538Z,135
2019-06-26T13:31:39.103Z,135
2019-06-26T13:32:38.328Z,135
2019-06-26T13:33:38.740Z,135
2019-06-26T13:34:38.737Z,140
2019-06-26T13:35:38.948Z,140
2019-06-26T13:36:38.731Z,145
2019-06-26T13:37:39.138Z,145
2019-06-26T13:38:38.510Z,150
2019-06-26T13:39:38.798Z,150
2019-06-26T13:40:40.889Z,150
2019-06-26T13:41:39.177Z,150
2019-06-26T13:42:38.911Z,150
2019-06-26T13:43:39.461Z,150
2019-06-26T13:44:38.942Z,150
2019-06-26T13:45:39.280Z,150
2019-06-26T13:46:38.488Z,155
2019-06-26T13:47:39.568Z,155
2019-06-26T13:48:39.378Z,160
2019-06-26T13:49:39.355Z,165
2019-06-26T13:50:38.867Z,170
2019-06-26T13:51:38.896Z,170
2019-06-26T13:52:39.459Z,180
2019-06-26T13:53:39.502Z,185
2019-06-26T13:54:39.768Z,190
2019-06-26T13:55:39.329Z,190
2019-06-26T13:56:39.305Z,190
2019-06-26T13:57:39.915Z,195
2019-06-26T13:58:39.378Z,200
2019-06-26T13:59:39.397Z,205
2019-06-26T14:00:39.689Z,210
2019-06-26T14:01:40.010Z,220
2019-06-26T14:02:39.235Z,225
2019-06-26T14:03:39.533Z,235
2019-06-26T14:04:39.031Z,260
2019-06-26T14:05:39.573Z,475
2019-06-26T14:06:39.606Z,755
2019-06-26T14:07:39.920Z,855
2019-06-26T14:08:42.633Z,875
2019-06-26T14:09:40.245Z,880
2019-06-26T14:10:40.295Z,860
2019-06-26T14:11:40.021Z,915
2019-06-26T14:12:40.364Z,1035
2019-06-26T14:13:44.199Z,1185
2019-06-26T14:15:05.829Z,1355
2019-06-26T14:15:40.153Z,1385
2019-06-26T14:16:40.511Z,1335
2019-06-26T14:17:40.533Z,1105
2019-06-26T14:18:40.255Z,900
2019-06-26T14:19:40.300Z,825
2019-06-26T14:20:40.050Z,790